Wickes, Arkansas
Current Conditions -  °F | °C
As of 4:53 AM on Friday 19 Dec 2014 (Local Time) from KDEQ Reporting Station
Haze Haze  
Wind Chill: 40°   Ceiling: 600
Heat Index: 44°   Visibility: 5mi
Dew Point: 43°   Wind: 7mph
Humidity: 96%   Direction: 90°E
Pressure: 30.15"   Gusts: NA
Location:  34.3°N, 94.34°W
Report Text: KDEQ 191053Z AUTO 09006KT 5SM BR OVC006 07/06 A3015 RMK AO2 SLP211 T00670061
Loading
Personal Weather Stations






























Interactive Weather Map New forecast layout! Learn more

10-Day Weather Forecast

Advertisements
Track Severe Weather on mobile